Historyczne dane pomiarowe

Dodano dane terminowe – wersja testowa.

Dane z okresu 1951-2019

Wersja bazy: 1.34 [2019-03-16, lista zmian], aktualizacja planowana na 2019-04-15

Dane meteo z obszaru Polski uzyskane na podstawie danych udostępnionych przez Instytut Meteorologii i Gospodarki Wodnej – Państwowy Instytut Badawczy.

 

Wybierz Datę:    

       

TemperaturaWilgotnośćWiatrCiśnienieOpadyŚniegCzas trwania zjawisk
 Stacja t tx tn tng RH VA  wxwx mslp ppp RRR   cm mm wxwxwxwxwxwxwx
1983-08-14 15.1 19.5 10.9- 73.3- 3.7 2.7---- 0.0------------
1983-08-13 14.1 18.1 11.2- 81.3- 5.0 4.3---- 1.2------------
1983-08-12 15.9 22.2 10.8- 85.5- 4.3 4.3---- 1.7------------
1983-08-11 20.6 28.0 11.8- 67.8- 0.0 1.0---- 0.0------------
1983-08-10 20.4 27.7 11.4- 66.8- 0.3 1.0---- 0.0------------
1983-08-09 18.5 26.5 10.3- 76.0- 2.0 0.7---- 0.0------------
1983-08-08 19.2 25.6 14.1- 81.0- 4.3 1.3---- 0.0------------
1983-08-07 18.0 24.1 8.9- 81.0- 2.0 2.7---- 0.0------------
1983-08-06 16.4 21.1 8.9- 76.5- 4.0 2.3---- 0.0------------
1983-08-05 14.2 16.8 12.2- 92.3- 7.3 2.7---- 1.0------------
1983-08-04 13.4 14.1 11.5- 99.3- 8.0 4.0---- 5.0------------
1983-08-03 14.2 20.7 11.6- 92.0- 8.0 5.7---- 35.4------------
1983-08-02 20.1 29.4 16.2- 83.8- 5.3 0.3---- 3.6------------
1983-08-01 22.3 32.0 10.0- 48.0- 0.0 7.0---- 1.7------------
1983-07-31 18.0 25.1 8.2- 65.5- 0.3 1.0---- 0.0------------
1983-07-30 15.8 18.4 14.0- 80.3- 6.3 6.3---- 0.0------------
1983-07-29 16.8 21.2 13.7- 82.3- 5.7 6.3---- 3.0------------
1983-07-28 19.3 25.6 16.2- 78.3- 5.0 5.7---- 0.0------------
1983-07-27 23.7 33.2 14.3- 54.0- 2.3 1.7---- 0.0------------
1983-07-26 18.3 28.5 7.4- 69.8- 0.0 0.0---- 0.0------------
1983-07-25 17.6 24.8 7.3- 70.8- 0.0 2.0---- 0.0------------
1983-07-24 16.5 19.9 10.8- 80.0- 5.7 0.3---- 0.1------------
1983-07-23 17.7 23.4 10.9- 75.3- 1.3 2.7---- 0.0------------
1983-07-22 14.7 17.5 12.7- 92.5- 7.0 3.3---- 1.5------------
1983-07-21 13.5 19.1 8.1- 68.3- 2.0 6.3---- 4.2------------
1983-07-20 12.3 17.9 10.1- 78.8- 6.0 5.0---- 1.6------------
1983-07-19 19.2 25.1 16.7- 83.0- 5.0 2.0---- 3.5------------
1983-07-18 22.9 32.6 11.3- 60.3- 2.3 2.0---- 16.0------------
1983-07-17 18.7 25.6 8.2- 61.3- 0.7 3.0---- 0.0------------
1983-07-16 20.5 24.2 17.3- 74.0- 4.7 4.0---- 6.2------------
1983-07-15 18.4 25.5 10.4- 64.5- 2.3 1.7---- 0.0------------
1983-07-14 19.6 24.7 15.2- 71.8- 3.7 2.7---- 0.0------------
1983-07-13 18.4 24.0 14.1- 86.8- 7.7 3.7---- 0.1------------
1983-07-12 22.6 30.2 13.7- 69.5- 1.7 5.0---- 0.0------------
1983-07-11 22.2 28.9 10.5- 63.8- 4.7 4.0---- 0.0------------
1983-07-10 23.1 30.2 12.3- 56.3- 2.0 4.3---- 0.0------------
1983-07-09 19.4 27.9 7.8- 59.0- 1.0 3.0---- 0.0------------
1983-07-08 20.4 26.6 7.5- 58.3- 0.0 3.7---- 0.0------------
1983-07-07 22.6 28.2 13.0- 48.8- 0.0 3.0---- 0.0------------
1983-07-06 21.8 29.8 9.3- 57.8- 2.0 0.7---- 0.0------------
1983-07-05 17.5 25.1 7.3- 73.3- 0.0 1.0---- 0.0------------
1983-07-04 16.2 21.2 7.8- 76.0- 3.3 2.7---- 0.0------------
1983-07-03 16.5 24.2 7.9- 72.0- 6.0 2.0---- 0.0------------
1983-07-02 16.8 21.6 8.3- 69.8- 3.3 3.0---- 0.0------------
1983-07-01 17.7 24.0 13.7- 76.3- 4.0 5.0---- 0.2------------
1983-06-30 18.0 23.1 12.6- 66.3- 6.7 3.0---- 0.0------------
1983-06-29 12.4 19.1 7.7- 74.0- 6.3 5.7---- 0.0------------
1983-06-28 13.4 17.5 11.2- 70.5- 4.3 7.7---- 0.0------------
1983-06-27 16.4 23.2 12.5- 79.8- 6.3 3.0---- 0.7------------
1983-06-26 16.4 22.4 7.3- 69.3- 0.0 2.7---- 0.0------------
1983-06-25 17.6 23.8 8.8- 69.8- 4.3 3.0---- 0.0------------
1983-06-24 19.3 27.3 5.5- 53.0- 0.3 2.0---- 0.0------------
1983-06-23 16.5 23.6 4.3- 47.5- 0.0 1.3---- 0.0------------
1983-06-22 14.5 20.9 6.3- 49.8- 0.0 2.3---- 0.0------------
1983-06-21 17.5 25.1 10.2- 62.8- 1.3 4.0---- 0.0------------
1983-06-20 17.7 25.4 7.3- 57.3- 0.0 1.7---- 0.0------------
1983-06-19 15.4 22.4 5.3- 49.8- 0.0 6.3---- 0.0------------
1983-06-18 13.2 16.4 10.2- 85.3- 6.7 4.3---- 0.0------------
1983-06-17 12.9 15.8 9.4- 77.3- 6.7 5.7---- 0.0------------
1983-06-16 11.9 16.2 8.3- 80.0- 5.7 6.3---- 0.2------------
720.4 ms

 

Źródłem pochodzenia danych jest Instytut Meteorologii i Gospodarki Wodnej – Państwowy Instytut Badawczy. Dane Instytutu Meteorologii i Gospodarki Wodnej – Państwowego Instytutu Badawczego zostały przetworzone.

Dane źródłowe można odnaleźć na stronie https://dane.imgw.pl